Metar Cercanos

 

LEPA - Palma De Mallorc, Spain
Distance from station: ONO 38km
Actualización: 19/08/2018 17:30
Few Clouds
Few Clouds
 Viento del ENE
Viento: ENE 22 km/h
Temperatura: 31°C
Indice Calor: 32°C
Rocío: 17°C
Humedad: 43%
Barómetro: 1018 hPa
Clouds: Few Clouds
Visibility: 10 km
Cloud details: Few Clouds 1067 m
2018/08/19 15:30 LEPA 191530Z 07012KT 9999 FEW035 31/17 Q1018 NOSIG
LEMH - Mahon/Menorca Is, Spain
Distance from station: ENE 105km
Actualización: 19/08/2018 17:30
Few Clouds
Few Clouds
 Viento del N
Viento: N 22 km/h
Temperatura: 27°C
Indice Calor: 28°C
Rocío: 19°C
Humedad: 62%
Barómetro: 1018 hPa
Clouds: Few Clouds
Visibility: 10 km
Cloud details: Few Clouds 884 m
2018/08/19 15:30 LEMH 191530Z 01012KT 320V040 9999 FEW029 27/19 Q1018
 
LEIB - Ibiza/Es Codola, Spain
Distance from station: OSO 165km
Actualización: 19/08/2018 17:30
Few Clouds
Few Clouds
 Viento del ENE
Viento: ENE 20 km/h
Temperatura: 29°C
Indice Calor: 31°C
Rocío: 20°C
Humedad: 58%
Barómetro: 1019 hPa
Clouds: Few Clouds
Visibility: 10 km
Cloud details: Few Clouds 1067 m
2018/08/19 15:30 LEIB 191530Z 07011KT 050V110 9999 FEW035 29/20 Q1019 NOSIG
LEBL - Barcelona Airpor, Spain
Distance from station: NNO 225km
Actualización: 19/08/2018 17:30
Despejado
Despejado
 Viento del SO
Viento: SO 20 km/h
Temperatura: 29°C
Indice Calor: 29°C
Rocío: 18°C
Humedad: 51%
Barómetro: 1018 hPa
Resumen: Despejado
Visibility: greater than 10 km
2018/08/19 15:30 LEBL 191530Z 22011KT 180V250 CAVOK 29/18 Q1018 NOSI
 
LEVC - Valencia (civ/Mi, Spain
Distance from station: NO 188km
Actualización: 19/08/2018 17:30
Despejado
Despejado
 Viento del SE
Viento: SE 17 km/h
Temperatura: 30°C
Rocío: 13°C
Humedad: 35%
Barómetro: 1019 hPa
Resumen: Despejado
Visibility: greater than 10 km
2018/08/19 15:30 LEVC 191530Z 13009KT 110V170 CAVOK 30/13 Q1019 NOSIG
LEGE - Gerona/Costa Bra, Spain
Distance from station: N 276km
Actualización: 19/08/2018 17:30
Few Clouds
Few Clouds
 Viento del SSO
Viento: SSO 19 km/h
Temperatura: 29°C
Indice Calor: 29°C
Rocío: 16°C
Humedad: 45%
Barómetro: 1018 hPa
Clouds: Few Clouds
Visibility: 10 km
Cloud details: Few Clouds 914 m
2018/08/19 15:30 LEGE 191530Z 21010KT 170V260 9999 FEW030 29/16 Q1018
 
LEAL - Alicante/El Alte, Spain
Distance from station: OSO 344km
Actualización: 19/08/2018 17:30
Few Clouds
Few Clouds
 Viento del E
Viento: E 19 km/h
Temperatura: 28°C
Indice Calor: 29°C
Rocío: 20°C
Humedad: 62%
Barómetro: 1019 hPa
Clouds: Few Clouds
Visibility: 10 km
Cloud details: Few Clouds 762 m
2018/08/19 15:30 LEAL 191530Z 09010KT 050V140 9999 FEW025 28/20 Q1019 NOSIG
LEAM - Almeria Airport, Spain
Distance from station: SSO 56km
Actualización: 19/08/2018 17:30
Few Clouds
Few Clouds
 Viento del E
Viento: E 44 km/h
Clouds: Few Clouds
Visibility: 10 km
Cloud details: Few Clouds 914 m
2018/08/19 15:30 LEAM 191530Z 08024KT 050V110 9999 FEW030 31/1
 
LEZG - Zaragoza (mil/Ci, Spain
Distance from station: NO 431km
Actualización: 19/08/2018 17:30
Few Clouds
Few Clouds
 Viento del O
Viento: O 6 km/h
Temperatura: 31°C
Rocío: 8°C
Humedad: 24%
Barómetro: 1020 hPa
Clouds: Few Clouds
Visibility: 10 km
Cloud details: Few Clouds 1524 m
2018/08/19 15:30 LEZG 191530Z 28003KT 9999 FEW050 31/08 Q1020
LEMD - Madrid/Barajas, Spain
Distance from station: ONO 234km
Actualización: 19/08/2018 17:30
Few Clouds
Few Clouds
 Viento del NO
Viento: NO 6 km/h
Temperatura: 32°C
Rocío: 11°C
Humedad: 27%
Barómetro: 1019 hPa
Clouds: Few Clouds
Visibility: 10 km
Cloud details: Few Clouds 1829 m
2018/08/19 15:30 LEMD 191530Z 31003KT 260V020 9999 FEW060 32/11 Q1019 NOSIG
 
LEGR - Granada Airport, Spain
Distance from station: OSO 62km
Actualización: 19/08/2018 17:30
Parcialmente nuboso
Parcialmente nuboso
 Viento del varies
Viento: varies 9 km/h
Temperatura: 34°C
Rocío: 14°C
Humedad: 30%
Barómetro: 1017 hPa
Clouds: Parcialmente nuboso
Visibility: 10 km
Cloud details: Few Clouds 1524 m
Parcialmente nuboso 2134 m
2018/08/19 15:30 LEGR 191530Z VRB05KT 9999 FEW050 SCT070 34/14 Q1017
LEMG - Malaga (civ/Mil), Spain
Distance from station: OSO 227km
Actualización: 19/08/2018 17:30
Few Clouds
Few Clouds
 Viento del SSE
Viento: SSE 17 km/h
Temperatura: 29°C
Indice Calor: 31°C
Rocío: 21°C
Humedad: 62%
Barómetro: 1017 hPa
Clouds: Few Clouds
Visibility: 10 km
Cloud details: Few Clouds 914 m
2018/08/19 15:30 LEMG 191530Z 16009KT 120V200 9999 FEW030 29/21 Q1017 WS R13 NOSIG
 
LEZL - Sevilla (civ/Mil, Spain
Distance from station: S 318km
Actualización: 19/08/2018 17:30
Despejado
Despejado
 Viento del SO
Viento: SO 15 km/h
Temperatura: 37°C
Rocío: 15°C
Humedad: 27%
Barómetro: 1013 hPa
Resumen: Despejado
Visibility: greater than 10 km
2018/08/19 15:30 LEZL 191530Z 23008KT 170V290 CAVOK 37/15 Q1013 NOSIG
LEVT - Vitoria, Spain
Distance from station: NO 226km
Actualización: 19/08/2018 17:30
Few Clouds
Few Clouds
 Viento del NNE
Viento: NNE 19 km/h
Temperatura: 25°C
Rocío: 14°C
Humedad: 51%
Barómetro: 1023 hPa
Clouds: Few Clouds
Visibility: 10 km
Cloud details: Few Clouds 853 m
2018/08/19 15:30 LEVT 191530Z 02010KT 330V050 9999 FEW028 25/14 Q1023
 
LEBB - Bilbao/Sondica, Spain
Distance from station: NNO 235km
Actualización: 19/08/2018 17:30
Few Clouds
Few Clouds
 Viento del NNE
Viento: NNE 17 km/h
Temperatura: 26°C
Rocío: 18°C
Humedad: 61%
Barómetro: 1023 hPa
Clouds: Few Clouds
Visibility: 10 km
Cloud details: Few Clouds 914 m
2018/08/19 15:30 LEBB 191530Z 02009KT 340V060 9999 FEW030 26/18 Q1023 NOSIG
LESO - San Sebastian/Fu, Spain
Distance from station: N 231km
Actualización: 19/08/2018 17:30
Few Clouds
Few Clouds
 Viento del N
Viento: N 11 km/h
Temperatura: 25°C
Rocío: 19°C
Humedad: 69%
Barómetro: 1023 hPa
Clouds: Few Clouds
Visibility: 10 km
Cloud details: Few Clouds 914 m
2018/08/19 15:30 LESO 191530Z 36006KT 290V060 9999 FEW030 25/19 Q1023
 
LEVD - Valladolid(Mil/C, Spain
Distance from station: ONO 239km
Actualización: 19/08/2018 17:30
Few Clouds
Few Clouds
 Viento del NE
Viento: NE 15 km/h
Temperatura: 28°C
Rocío: 3°C
Humedad: 20%
Barómetro: 1022 hPa
Clouds: Few Clouds
Visibility: 10 km
Cloud details: Few Clouds 1524 m
2018/08/19 15:30 LEVD 191530Z 04008KT 010V100 9999 FEW050TCU 28/03 Q1022
LESA - Salamanca (civ/M, Spain
Distance from station: ONO 349km
Actualización: 19/08/2018 17:30
Few Clouds
Few Clouds
 Viento del varies
Viento: varies 4 km/h
Temperatura: 30°C
Rocío: 9°C
Humedad: 27%
Barómetro: 1021 hPa
Clouds: Few Clouds
Visibility: 10 km
Cloud details: Few Clouds 1219 m
2018/08/19 15:30 LESA 191530Z VRB02KT 9999 FEW040 30/09 Q1021
 
LEXJ - Santander/Paraya, Spain
Distance from station: NNO 247km
Actualización: 19/08/2018 17:30
Few Clouds
Few Clouds
 Viento del NE
Viento: NE 20 km/h
Temperatura: 23°C
Rocío: 19°C
Humedad: 78%
Barómetro: 1023 hPa
Clouds: Few Clouds
Visibility: 10 km
Cloud details: Few Clouds 914 m
2018/08/19 15:30 LEXJ 191530Z 05011KT 010V080 9999 FEW030 23/19 Q1023
LEAS - Asturias/Aviles, Spain
Distance from station: NO 214km
Actualización: 19/08/2018 17:30
Few Clouds
Few Clouds
 Viento del E
Viento: E 20 km/h
Temperatura: 23°C
Rocío: 17°C
Humedad: 69%
Barómetro: 1024 hPa
Clouds: Few Clouds
Visibility: 10 km
Cloud details: Few Clouds 457 m
2018/08/19 15:30 LEAS 191530Z 09011KT 060V140 9999 FEW015 23/17 Q1024 NOSIG
 
LECO - La Coruna/Alvedr, Spain
Distance from station: ONO 222km
Actualización: 19/08/2018 17:30
Despejado
Despejado
 Viento del N
Viento: N 13 km/h
Temperatura: 27°C
Indice Calor: 28°C
Rocío: 17°C
Humedad: 54%
Barómetro: 1020 hPa
Resumen: Despejado
Visibility: greater than 10 km
2018/08/19 15:30 LECO 191530Z 01007KT 290V060 CAVOK 27/17 Q1020 NOSIG
LEVX - Vigo/Peinador, Spain
Distance from station: O 214km
Actualización: 19/08/2018 17:30
Despejado
Despejado
 Viento del E
Viento: E 15 km/h
Temperatura: 35°C
Rocío: 8°C
Humedad: 19%
Barómetro: 1018 hPa
Resumen: Despejado
Visibility: greater than 10 km
2018/08/19 15:30 LEVX 191530Z 10008KT 060V140 CAVOK 35/08 Q1018 NOSIG